»·PEaware :: N973DM KTOA-KPOC

N973DM :: KTOA-KPOC

FLIGHT INFORMATION

Flight Status: Arrived
Operator: Privately registered:
United States
More flights under this callsign
Pilot: Anonymous 1328 (1328)
Aircraft: CIRRUS SR-22
(SR22)
More flights by this aircraft type
Origin: KTOA Zamperini
United States
Destination: KPOC Brackett
United States
More flights between these airports :: More routes between these airports
Route: +LAX170R LIMBO V64 SLI V8 POXKU V363 POM
File this flight plan on PilotEdge
Remarks:
Altitude:
(Current/Filed)
5,000ft
Speed:
(Current/Filed)
165kts
Departed: 22-Nov-14 12:54 PM
Arrived: 22-Nov-14 01:39 PM
Distance/Time
Traveled:
32nm/0:45
Distance/Time
To Go:
Arrived

Flight Plot

Page will automatically refresh every two minutes.

Flight plan parsing failed; only flown route is shown


Map Options




Map Legend


Flown Route
Filed Route
Departure Airport
Arrival Airport
Navaid (VOR, NDB)
Fix

Horizontal Profiles

Position Reports

Time Latitude Longitude Heading Altitude Ground
Speed
22-Nov-14 12:15 33.805526 -118.347406 23 105ft 0kts
22-Nov-14 12:16 33.805526 -118.347406 23 105ft 0kts
22-Nov-14 12:17 33.805526 -118.347406 23 105ft 0kts
22-Nov-14 12:18 33.805526 -118.347406 23 105ft 0kts
22-Nov-14 12:19 33.805526 -118.347406 23 105ft 0kts
22-Nov-14 12:20 33.805526 -118.347406 23 105ft 0kts
22-Nov-14 12:21 33.805526 -118.347406 23 105ft 0kts
22-Nov-14 12:22 33.805526 -118.347406 23 105ft 0kts
22-Nov-14 12:23 33.805526 -118.347406 23 105ft 0kts
22-Nov-14 12:24 33.805526 -118.347406 23 105ft 0kts
22-Nov-14 12:25 33.805526 -118.347406 23 105ft 0kts
22-Nov-14 12:26 33.805526 -118.347406 23 105ft 0kts
22-Nov-14 12:27 33.805526 -118.347406 23 105ft 0kts
22-Nov-14 12:28 33.805526 -118.347406 23 105ft 0kts
22-Nov-14 12:29 33.805526 -118.347406 23 105ft 0kts
22-Nov-14 12:30 33.805526 -118.347406 23 105ft 0kts
22-Nov-14 12:31 33.805526 -118.347406 23 105ft 0kts
22-Nov-14 12:32 33.805526 -118.347406 23 105ft 0kts
22-Nov-14 12:33 33.805526 -118.347406 23 105ft 0kts
22-Nov-14 12:34 33.805526 -118.347406 23 105ft 0kts
22-Nov-14 12:35 33.805526 -118.347406 23 105ft 0kts
22-Nov-14 12:36 33.805526 -118.347406 23 105ft 0kts
22-Nov-14 12:37 33.805526 -118.347406 23 105ft 0kts
22-Nov-14 12:38 33.805526 -118.347406 23 105ft 0kts
22-Nov-14 12:39 33.805526 -118.347406 23 105ft 0kts
22-Nov-14 12:40 33.805526 -118.347406 23 105ft 0kts
22-Nov-14 12:41 33.805526 -118.347406 23 105ft 0kts
22-Nov-14 12:42 33.805706 -118.347260 39 105ft 4kts
22-Nov-14 12:43 33.804960 -118.344978 128 105ft 7kts
22-Nov-14 12:44 33.803121 -118.342199 128 105ft 12kts
22-Nov-14 12:45 33.800759 -118.338614 129 105ft 14kts
22-Nov-14 12:46 33.798202 -118.334813 129 105ft 13kts
22-Nov-14 12:47 33.798846 -118.333293 353 105ft 0kts
22-Nov-14 12:48 33.798846 -118.333293 353 105ft 0kts
22-Nov-14 12:49 33.798846 -118.333293 353 105ft 0kts
22-Nov-14 12:50 33.798846 -118.333293 353 105ft 0kts
22-Nov-14 12:51 33.799131 -118.333265 25 105ft 0kts
22-Nov-14 12:52 33.811840 -118.347541 321 790ft 95kts
22-Nov-14 12:53 33.832948 -118.377422 311 1801ft 128kts
22-Nov-14 12:54 33.855871 -118.408240 309 3151ft 123kts
22-Nov-14 12:55 33.875983 -118.438286 289 4579ft 106kts
22-Nov-14 12:56 33.846234 -118.450394 183 5018ft 157kts
22-Nov-14 12:57 33.801961 -118.453122 182 5018ft 160kts
22-Nov-14 12:58 33.755461 -118.455425 182 5020ft 172kts
22-Nov-14 12:59 33.707128 -118.457696 183 5022ft 175kts
22-Nov-14 13:00 33.691986 -118.420147 72 5015ft 173kts
22-Nov-14 13:01 33.702437 -118.363527 72 5021ft 174kts
22-Nov-14 13:02 33.716925 -118.307885 72 5019ft 174kts
22-Nov-14 13:03 33.731532 -118.252292 71 5017ft 174kts
22-Nov-14 13:04 33.746103 -118.196779 71 5015ft 174kts
22-Nov-14 13:05 33.760430 -118.142100 72 5013ft 174kts
22-Nov-14 13:06 33.774789 -118.087202 73 5010ft 175kts
22-Nov-14 13:07 33.789004 -118.032332 72 5007ft 174kts
22-Nov-14 13:08 33.803053 -117.978068 72 5004ft 174kts
22-Nov-14 13:09 33.817431 -117.922494 72 5003ft 175kts
22-Nov-14 13:10 33.831928 -117.867433 72 5001ft 175kts
22-Nov-14 13:11 33.846379 -117.811592 72 5001ft 175kts
22-Nov-14 13:12 33.879109 -117.782512 356 5004ft 172kts
22-Nov-14 13:13 33.927193 -117.784035 358 5005ft 174kts
22-Nov-14 13:14 33.975313 -117.785060 358 5007ft 173kts
22-Nov-14 13:15 34.006678 -117.753336 71 5013ft 172kts
22-Nov-14 13:16 34.023027 -117.699197 69 5014ft 171kts
22-Nov-14 13:17 34.039857 -117.645029 69 4728ft 174kts
22-Nov-14 13:18 34.056288 -117.592135 69 4123ft 163kts
22-Nov-14 13:19 34.071041 -117.544561 69 4007ft 143kts
22-Nov-14 13:20 34.078018 -117.499278 93 3979ft 137kts
22-Nov-14 13:21 34.071809 -117.455629 142 3976ft 134kts
22-Nov-14 13:22 34.053455 -117.478033 296 3975ft 127kts
22-Nov-14 13:23 34.085243 -117.490665 320 3978ft 125kts
22-Nov-14 13:24 34.081114 -117.528766 272 3977ft 124kts
22-Nov-14 13:25 34.084925 -117.570009 272 3980ft 124kts
22-Nov-14 13:26 34.085492 -117.610054 270 3980ft 103kts
22-Nov-14 13:27 34.085614 -117.643034 270 3616ft 110kts
22-Nov-14 13:28 34.086640 -117.682871 273 2849ft 123kts
22-Nov-14 13:29 34.088552 -117.723341 273 2064ft 119kts
22-Nov-14 13:30 34.090383 -117.762759 272 1352ft 114kts
22-Nov-14 13:31 34.094658 -117.794487 230 1494ft 91kts
22-Nov-14 13:32 34.073553 -117.785061 113 2258ft 118kts
22-Nov-14 13:33 34.067982 -117.739704 86 2577ft 114kts
22-Nov-14 13:34 34.086165 -117.731046 288 1682ft 88kts
22-Nov-14 13:35 34.090307 -117.761448 271 1308ft 90kts
22-Nov-14 13:36 34.091546 -117.786361 274 1013ft 43kts
22-Nov-14 13:37 34.092485 -117.790361 7 1013ft 0kts

Navigation Log

Ident Type
Flight plan parsing failed, navigation log unavailable